Time;durP1;ratioP1;P1;durP2;ratioP2;P2;SDS_P1;SDS_P2;PMS_P1;PMS_P2;Temp;Humidity;BMP_temperature;BMP_pressure;BME280_temperature;BME280_humidity;BME280_pressure;Samples;Min_cycle;Max_cycle;Signal;HPM_P1;HPM_P2
2023/05/17 00:01:40;;;;;;;;;;;18.50;64.30;;;;;;5020435;28;1190;-71
2023/05/17 00:04:06;;;;;;;;;;;18.50;64.30;;;;;;5005056;28;1081;-70
2023/05/17 00:06:33;;;;;;;;;;;18.50;64.30;;;;;;5017800;28;952;-71
2023/05/17 00:08:59;;;;;;;;;;;18.50;64.30;;;;;;5000801;28;934;-70
2023/05/17 00:11:24;;;;;;;;;;;18.50;64.30;;;;;;5004273;28;1264;-70
2023/05/17 00:13:50;;;;;;;;;;;18.50;64.30;;;;;;5021182;28;882;-71
2023/05/17 00:16:15;;;;;;;;;;;18.50;64.30;;;;;;5017025;28;812;-71
2023/05/17 00:18:41;;;;;;;;;;;18.50;64.40;;;;;;5023261;28;1282;-71
2023/05/17 00:21:06;;;;;;;;;;;18.50;64.40;;;;;;5018295;28;1975;-71
2023/05/17 00:23:31;;;;;;;;;;;18.50;64.40;;;;;;5024765;28;975;-71
2023/05/17 00:25:57;;;;;;;;;;;18.50;64.40;;;;;;5022910;28;975;-70
2023/05/17 00:28:22;;;;;;;;;;;18.50;64.40;;;;;;5024276;28;821;-71
2023/05/17 00:30:48;;;;;;;;;;;18.50;64.40;;;;;;5023747;28;1271;-70
2023/05/17 00:33:13;;;;;;;;;;;18.50;64.40;;;;;;5023939;28;1372;-70
2023/05/17 00:35:39;;;;;;;;;;;18.50;64.40;;;;;;5021252;28;1326;-71
2023/05/17 00:38:04;;;;;;;;;;;18.50;64.40;;;;;;5005946;28;825;-71
2023/05/17 00:40:30;;;;;;;;;;;18.50;64.40;;;;;;5019837;28;1906;-71
2023/05/17 00:42:55;;;;;;;;;;;18.50;64.40;;;;;;5021385;28;1150;-70
2023/05/17 00:45:21;;;;;;;;;;;18.50;64.50;;;;;;5020785;28;867;-71
2023/05/17 00:47:47;;;;;;;;;;;18.50;64.40;;;;;;5024957;28;788;-70
2023/05/17 00:50:12;;;;;;;;;;;18.50;64.50;;;;;;5026388;28;1323;-71
2023/05/17 00:52:37;;;;;;;;;;;18.50;64.50;;;;;;5005611;28;979;-71
2023/05/17 00:55:03;;;;;;;;;;;18.50;64.50;;;;;;5006851;28;910;-71
2023/05/17 00:57:29;;;;;;;;;;;18.50;64.50;;;;;;5018979;28;839;-70
2023/05/17 00:59:54;;;;;;;;;;;18.50;64.50;;;;;;5019841;28;1926;-71
2023/05/17 01:02:20;;;;;;;;;;;18.50;64.50;;;;;;5004676;28;930;-71
2023/05/17 01:04:45;;;;;;;;;;;18.50;64.50;;;;;;5008308;28;1011;-70
2023/05/17 01:07:11;;;;;;;;;;;18.50;64.50;;;;;;5004104;28;1176;-70
2023/05/17 01:09:36;;;;;;;;;;;18.50;64.50;;;;;;5024229;28;892;-70
2023/05/17 01:12:04;;;;;;;;;;;18.50;64.50;;;;;;5025107;28;1232;-71
2023/05/17 01:14:37;;;;;;;;;;;18.50;64.50;;;;;;5018627;28;856;-71
2023/05/17 01:17:11;;;;;;;;;;;18.50;64.50;;;;;;5005560;28;812;-70
2023/05/17 01:20:12;;;;;;;;;;;18.50;64.60;;;;;;5021798;28;1966;-70
2023/05/17 01:22:46;;;;;;;;;;;18.50;64.60;;;;;;4952705;28;1161;-70
2023/05/17 01:25:26;;;;;;;;;;;18.50;64.50;;;;;;5013548;28;973;-70
2023/05/17 01:27:52;;;;;;;;;;;18.50;64.60;;;;;;5027416;28;840;-70
2023/05/17 01:30:18;;;;;;;;;;;18.50;64.60;;;;;;5005987;28;1377;-71
2023/05/17 01:32:44;;;;;;;;;;;18.50;64.60;;;;;;5002800;28;1473;-71
2023/05/17 01:35:09;;;;;;;;;;;18.50;64.60;;;;;;5007068;28;1247;-70
2023/05/17 01:37:35;;;;;;;;;;;18.50;64.60;;;;;;5021587;28;828;-71
2023/05/17 01:40:00;;;;;;;;;;;18.50;64.60;;;;;;5020019;28;1902;-70
2023/05/17 01:42:30;;;;;;;;;;;18.50;64.60;;;;;;5017001;28;1059;-70
2023/05/17 01:44:55;;;;;;;;;;;18.40;64.60;;;;;;5006906;28;908;-71
2023/05/17 01:47:28;;;;;;;;;;;18.40;64.60;;;;;;5020635;28;975;-71
2023/05/17 01:49:54;;;;;;;;;;;18.40;64.60;;;;;;5019144;28;1265;-70
2023/05/17 01:52:30;;;;;;;;;;;18.50;64.70;;;;;;5005276;28;834;-70
2023/05/17 01:55:08;;;;;;;;;;;18.50;64.70;;;;;;5002904;28;1073;-71
2023/05/17 01:57:34;;;;;;;;;;;18.50;64.70;;;;;;5004246;28;977;-71
2023/05/17 02:00:01;;;;;;;;;;;18.50;64.70;;;;;;5020871;28;1973;-71
2023/05/17 02:02:27;;;;;;;;;;;18.40;64.70;;;;;;5021427;28;900;-71
2023/05/17 02:04:53;;;;;;;;;;;18.40;64.60;;;;;;5021601;28;854;-71
2023/05/17 02:07:19;;;;;;;;;;;18.40;64.70;;;;;;5022096;28;960;-71
2023/05/17 02:09:44;;;;;;;;;;;18.50;64.70;;;;;;5018985;28;895;-71
2023/05/17 02:12:10;;;;;;;;;;;18.50;64.70;;;;;;5018726;28;1289;-71
2023/05/17 02:14:35;;;;;;;;;;;18.40;64.60;;;;;;5019981;28;859;-71
2023/05/17 02:17:01;;;;;;;;;;;18.40;64.70;;;;;;5023921;28;824;-71
2023/05/17 02:19:26;;;;;;;;;;;18.50;64.70;;;;;;5021059;28;1898;-71
2023/05/17 02:21:52;;;;;;;;;;;18.50;64.70;;;;;;5020979;28;1303;-71
2023/05/17 02:24:17;;;;;;;;;;;18.40;64.70;;;;;;5004911;28;1168;-71
2023/05/17 02:26:43;;;;;;;;;;;18.40;64.60;;;;;;5017821;28;911;-71
2023/05/17 02:29:09;;;;;;;;;;;18.40;64.70;;;;;;5022699;28;877;-71
2023/05/17 02:31:35;;;;;;;;;;;18.40;64.70;;;;;;5004269;28;1332;-71
2023/05/17 02:34:00;;;;;;;;;;;18.40;64.70;;;;;;5017653;28;1422;-71
2023/05/17 02:36:26;;;;;;;;;;;18.50;64.80;;;;;;5021260;28;1271;-70
2023/05/17 02:38:51;;;;;;;;;;;18.40;64.70;;;;;;5015795;28;880;-70
2023/05/17 02:41:17;;;;;;;;;;;18.40;64.70;;;;;;5004242;28;1985;-70
2023/05/17 02:43:42;;;;;;;;;;;18.40;64.70;;;;;;5007083;28;857;-70
2023/05/17 02:46:08;;;;;;;;;;;18.40;64.70;;;;;;5021897;28;930;-71
2023/05/17 02:48:33;;;;;;;;;;;18.40;64.70;;;;;;5006246;28;860;-71
2023/05/17 02:50:59;;;;;;;;;;;18.40;64.70;;;;;;5018575;28;1811;-70
2023/05/17 02:53:24;;;;;;;;;;;18.40;64.70;;;;;;4990736;28;951;-70
2023/05/17 02:55:50;;;;;;;;;;;18.40;64.80;;;;;;5018832;28;843;-71
2023/05/17 02:58:15;;;;;;;;;;;18.40;64.80;;;;;;5016116;28;842;-71
2023/05/17 03:00:45;;;;;;;;;;;18.40;64.80;;;;;;5017460;28;1943;-70
2023/05/17 03:03:10;;;;;;;;;;;18.40;64.80;;;;;;5016354;28;882;-70
2023/05/17 03:05:35;;;;;;;;;;;18.40;64.80;;;;;;5018072;28;950;-71
2023/05/17 03:08:01;;;;;;;;;;;18.40;64.80;;;;;;5020737;28;793;-71
2023/05/17 03:10:26;;;;;;;;;;;18.50;64.90;;;;;;5007016;28;1379;-71
2023/05/17 03:12:52;;;;;;;;;;;18.40;64.80;;;;;;5015261;28;879;-71
2023/05/17 03:15:18;;;;;;;;;;;18.40;64.80;;;;;;5019497;28;854;-71
2023/05/17 03:17:43;;;;;;;;;;;18.40;64.80;;;;;;5019330;28;876;-70
2023/05/17 03:20:09;;;;;;;;;;;18.40;64.80;;;;;;5018970;28;1915;-70
2023/05/17 03:22:34;;;;;;;;;;;18.40;64.80;;;;;;5003273;28;1019;-71
2023/05/17 03:25:00;;;;;;;;;;;18.40;64.90;;;;;;5017197;28;875;-70
2023/05/17 03:27:25;;;;;;;;;;;18.40;64.90;;;;;;5017940;28;938;-71
2023/05/17 03:29:50;;;;;;;;;;;18.40;64.80;;;;;;5017712;28;1836;-71
2023/05/17 03:32:16;;;;;;;;;;;18.40;64.80;;;;;;5019697;28;2069;-72
2023/05/17 03:34:41;;;;;;;;;;;18.40;64.90;;;;;;5018565;28;1634;-70
2023/05/17 03:37:07;;;;;;;;;;;18.40;64.90;;;;;;5021886;28;1046;-70
2023/05/17 03:39:32;;;;;;;;;;;18.50;64.90;;;;;;5005238;28;1898;-69
2023/05/17 03:41:58;;;;;;;;;;;18.40;64.90;;;;;;5019301;28;2156;-69
2023/05/17 03:44:23;;;;;;;;;;;18.40;64.90;;;;;;5015364;28;1642;-68
2023/05/17 03:46:49;;;;;;;;;;;18.40;64.90;;;;;;5018462;28;1241;-69
2023/05/17 03:49:14;;;;;;;;;;;18.40;64.90;;;;;;5017324;28;1237;-68
2023/05/17 03:51:40;;;;;;;;;;;18.40;64.90;;;;;;5018641;28;1358;-69
2023/05/17 03:54:05;;;;;;;;;;;18.40;64.90;;;;;;5021452;28;855;-70
2023/05/17 03:56:31;;;;;;;;;;;18.40;64.90;;;;;;5023219;28;811;-69
2023/05/17 03:58:56;;;;;;;;;;;18.40;64.90;;;;;;5022702;28;879;-73
2023/05/17 04:01:22;;;;;;;;;;;18.40;64.90;;;;;;5021438;28;1898;-72
2023/05/17 04:03:47;;;;;;;;;;;18.40;65.00;;;;;;5009622;28;930;-72
2023/05/17 04:06:13;;;;;;;;;;;18.40;64.90;;;;;;5022245;28;864;-72
2023/05/17 04:08:39;;;;;;;;;;;18.40;64.90;;;;;;5012566;28;835;-72
2023/05/17 04:11:12;;;;;;;;;;;18.40;64.90;;;;;;5014281;28;1263;-72
2023/05/17 04:13:38;;;;;;;;;;;18.40;65.00;;;;;;5023533;28;919;-72
2023/05/17 04:16:04;;;;;;;;;;;18.40;64.90;;;;;;5023139;28;927;-71
2023/05/17 04:18:29;;;;;;;;;;;18.40;65.00;;;;;;5022871;28;819;-71
2023/05/17 04:20:55;;;;;;;;;;;18.40;65.00;;;;;;5022050;28;1922;-72
2023/05/17 04:23:20;;;;;;;;;;;18.40;65.70;;;;;;5019518;28;864;-72
2023/05/17 04:25:46;;;;;;;;;;;18.40;65.00;;;;;;5022106;28;838;-72
2023/05/17 04:28:11;;;;;;;;;;;18.40;65.00;;;;;;5025450;28;891;-72
2023/05/17 04:30:40;;;;;;;;;;;18.40;65.00;;;;;;5020884;28;1343;-71
2023/05/17 04:33:06;;;;;;;;;;;18.40;65.00;;;;;;5022825;28;917;-72
2023/05/17 04:35:31;;;;;;;;;;;18.40;65.00;;;;;;5021932;28;1661;-72
2023/05/17 04:37:57;;;;;;;;;;;18.40;65.00;;;;;;5018968;28;852;-72
2023/05/17 04:40:23;;;;;;;;;;;18.40;65.00;;;;;;5022717;28;1956;-71
2023/05/17 04:42:49;;;;;;;;;;;18.50;65.10;;;;;;5021013;28;1246;-71
2023/05/17 04:45:15;;;;;;;;;;;18.40;65.00;;;;;;5021229;28;892;-71
2023/05/17 04:47:40;;;;;;;;;;;18.40;65.00;;;;;;5024376;28;844;-71
2023/05/17 04:50:06;;;;;;;;;;;18.40;65.00;;;;;;5007922;28;1225;-71
2023/05/17 04:52:31;;;;;;;;;;;18.40;65.10;;;;;;5008194;28;962;-71
2023/05/17 04:54:57;;;;;;;;;;;18.40;65.00;;;;;;5008095;28;963;-71
2023/05/17 04:57:22;;;;;;;;;;;18.40;65.00;;;;;;5023117;28;925;-71
2023/05/17 04:59:48;;;;;;;;;;;18.40;65.10;;;;;;5022451;28;1930;-71
2023/05/17 05:02:13;;;;;;;;;;;18.40;65.10;;;;;;5021138;28;1350;-72
2023/05/17 05:04:39;;;;;;;;;;;18.40;65.10;;;;;;5023097;28;898;-71
2023/05/17 05:07:04;;;;;;;;;;;18.40;65.10;;;;;;5023085;28;890;-71
2023/05/17 05:09:29;;;;;;;;;;;18.40;65.10;;;;;;5006488;28;1089;-71
2023/05/17 05:11:56;;;;;;;;;;;18.40;65.10;;;;;;5005651;28;1346;-71
2023/05/17 05:14:22;;;;;;;;;;;18.40;65.10;;;;;;5021524;28;852;-71
2023/05/17 05:16:47;;;;;;;;;;;18.40;65.10;;;;;;5020050;28;985;-71
2023/05/17 05:19:13;;;;;;;;;;;18.40;65.10;;;;;;5020526;28;1364;-71
2023/05/17 05:21:38;;;;;;;;;;;18.40;65.10;;;;;;5023814;28;1921;-71
2023/05/17 05:24:04;;;;;;;;;;;18.40;65.10;;;;;;5023097;28;931;-71
2023/05/17 05:26:29;;;;;;;;;;;18.50;65.20;;;;;;5022289;28;1050;-71
2023/05/17 05:28:55;;;;;;;;;;;18.40;65.10;;;;;;5019283;28;793;-72
2023/05/17 05:31:20;;;;;;;;;;;18.40;65.10;;;;;;5018447;28;1775;-71
2023/05/17 05:33:46;;;;;;;;;;;18.40;65.10;;;;;;5018773;28;1400;-72
2023/05/17 05:36:11;;;;;;;;;;;18.40;65.10;;;;;;5020508;28;1284;-72
2023/05/17 05:38:36;;;;;;;;;;;18.40;65.10;;;;;;5023102;28;792;-72
2023/05/17 05:41:02;;;;;;;;;;;18.40;65.10;;;;;;5021416;28;1906;-72
2023/05/17 05:43:27;;;;;;;;;;;18.40;65.10;;;;;;5019815;28;923;-72
2023/05/17 05:45:53;;;;;;;;;;;18.40;65.20;;;;;;5020332;28;861;-71
2023/05/17 05:48:18;;;;;;;;;;;18.40;65.20;;;;;;5006013;28;1007;-71
2023/05/17 05:50:44;;;;;;;;;;;18.40;65.20;;;;;;5019071;28;1314;-71
2023/05/17 05:53:10;;;;;;;;;;;18.40;65.20;;;;;;5022960;28;1243;-72
2023/05/17 05:55:35;;;;;;;;;;;18.40;65.20;;;;;;5003610;28;883;-72
2023/05/17 05:58:00;;;;;;;;;;;18.40;65.20;;;;;;5021973;28;804;-72
2023/05/17 06:00:26;;;;;;;;;;;18.40;65.20;;;;;;5020178;28;1965;-72
2023/05/17 06:02:52;;;;;;;;;;;18.40;64.40;;;;;;5013011;28;1313;-71
2023/05/17 06:05:18;;;;;;;;;;;18.40;63.40;;;;;;5021621;28;1325;-71
2023/05/17 06:07:43;;;;;;;;;;;18.40;63.20;;;;;;5020251;28;888;-71
2023/05/17 06:10:09;;;;;;;;;;;18.40;62.60;;;;;;5001038;28;1642;-71
2023/05/17 06:12:34;;;;;;;;;;;18.40;62.60;;;;;;5018895;28;864;-71
2023/05/17 06:15:00;;;;;;;;;;;18.40;62.60;;;;;;5019816;28;895;-70
2023/05/17 06:17:25;;;;;;;;;;;18.40;62.60;;;;;;5019181;28;1385;-69
2023/05/17 06:19:51;;;;;;;;;;;18.40;62.60;;;;;;5025251;28;1979;-70
2023/05/17 06:22:16;;;;;;;;;;;18.40;62.70;;;;;;5018163;28;1236;-69
2023/05/17 06:24:42;;;;;;;;;;;18.40;62.80;;;;;;5018844;28;817;-71
2023/05/17 06:27:07;;;;;;;;;;;18.40;63.00;;;;;;5018591;28;947;-70
2023/05/17 06:29:33;;;;;;;;;;;18.40;63.10;;;;;;5020114;28;809;-71
2023/05/17 06:31:58;;;;;;;;;;;18.40;63.20;;;;;;5020654;28;1309;-71
2023/05/17 06:34:24;;;;;;;;;;;18.40;63.40;;;;;;5017221;28;1909;-72
2023/05/17 06:36:49;;;;;;;;;;;18.40;63.50;;;;;;5021769;28;1255;-73
2023/05/17 06:39:15;;;;;;;;;;;18.40;63.60;;;;;;5002892;28;1199;-75
2023/05/17 06:41:40;;;;;;;;;;;18.40;63.60;;;;;;5019856;28;1956;-70
2023/05/17 06:44:06;;;;;;;;;;;18.40;63.70;;;;;;5016427;28;888;-71
2023/05/17 06:46:31;;;;;;;;;;;18.40;63.70;;;;;;5004613;28;883;-70
2023/05/17 06:48:57;;;;;;;;;;;18.40;63.80;;;;;;5016590;28;1923;-70
2023/05/17 06:51:22;;;;;;;;;;;18.40;63.90;;;;;;5001792;28;1339;-69
2023/05/17 06:53:49;;;;;;;;;;;18.40;63.90;;;;;;5019448;28;871;-69
2023/05/17 06:56:14;;;;;;;;;;;18.40;64.00;;;;;;5020359;28;1658;-74
2023/05/17 06:58:40;;;;;;;;;;;18.40;64.00;;;;;;4990196;28;1176;-72
2023/05/17 07:01:05;;;;;;;;;;;18.40;64.10;;;;;;5003149;28;2026;-72
2023/05/17 07:03:31;;;;;;;;;;;18.40;64.10;;;;;;5018893;28;871;-72
2023/05/17 07:05:56;;;;;;;;;;;18.40;64.10;;;;;;5004840;28;931;-72
2023/05/17 07:08:22;;;;;;;;;;;18.40;64.20;;;;;;5020290;28;930;-73
2023/05/17 07:10:49;;;;;;;;;;;18.40;64.20;;;;;;5007291;28;1369;-73
2023/05/17 07:13:16;;;;;;;;;;;18.40;64.30;;;;;;5019559;28;860;-72
2023/05/17 07:15:41;;;;;;;;;;;18.40;64.30;;;;;;5018408;28;832;-72
2023/05/17 07:18:07;;;;;;;;;;;18.40;64.30;;;;;;5018993;28;860;-72
2023/05/17 07:20:32;;;;;;;;;;;18.40;64.30;;;;;;5004680;28;1906;-72
2023/05/17 07:22:58;;;;;;;;;;;18.40;64.30;;;;;;5021673;28;871;-72
2023/05/17 07:25:23;;;;;;;;;;;18.40;64.30;;;;;;5022542;28;888;-72
2023/05/17 07:27:49;;;;;;;;;;;18.40;64.40;;;;;;5020046;28;931;-72
2023/05/17 07:30:15;;;;;;;;;;;18.40;64.40;;;;;;5017073;28;2170;-72
2023/05/17 07:32:40;;;;;;;;;;;18.40;64.50;;;;;;5023208;28;1962;-71
2023/05/17 07:35:06;;;;;;;;;;;18.40;65.10;;;;;;5022726;28;1376;-71
2023/05/17 07:37:31;;;;;;;;;;;18.50;65.20;;;;;;5022008;28;1431;-71
2023/05/17 07:39:57;;;;;;;;;;;18.50;65.10;;;;;;5020947;28;1958;-70
2023/05/17 07:42:22;;;;;;;;;;;18.50;65.00;;;;;;5010521;28;1637;-71
2023/05/17 07:44:48;;;;;;;;;;;18.60;65.10;;;;;;5021185;28;1472;-71
2023/05/17 07:47:14;;;;;;;;;;;18.60;65.20;;;;;;5007086;28;1264;-71
2023/05/17 07:49:40;;;;;;;;;;;18.60;65.40;;;;;;5006693;28;1316;-71
2023/05/17 07:52:07;;;;;;;;;;;18.70;65.50;;;;;;5011754;28;1237;-71
2023/05/17 07:54:33;;;;;;;;;;;18.70;65.50;;;;;;5002487;28;1224;-71
2023/05/17 07:56:59;;;;;;;;;;;18.70;65.50;;;;;;5005935;28;953;-71
2023/05/17 07:59:24;;;;;;;;;;;18.70;65.50;;;;;;5004655;28;832;-72
2023/05/17 08:01:51;;;;;;;;;;;18.70;65.50;;;;;;5004907;28;1898;-71
2023/05/17 08:04:18;;;;;;;;;;;18.70;65.60;;;;;;5001554;28;1064;-71
2023/05/17 08:06:44;;;;;;;;;;;18.70;65.70;;;;;;5002751;28;2140;-71
2023/05/17 08:09:10;;;;;;;;;;;18.70;65.70;;;;;;5004438;28;878;-71
2023/05/17 08:11:36;;;;;;;;;;;18.70;65.80;;;;;;4996074;28;1697;-71
2023/05/17 08:14:02;;;;;;;;;;;18.70;65.80;;;;;;5004551;28;1254;-71
2023/05/17 08:16:27;;;;;;;;;;;18.70;65.90;;;;;;5006221;28;1280;-71
2023/05/17 08:18:53;;;;;;;;;;;18.70;65.90;;;;;;4985654;28;1304;-71
2023/05/17 08:21:19;;;;;;;;;;;18.70;66.00;;;;;;5004759;28;1985;-71
2023/05/17 08:23:44;;;;;;;;;;;18.70;66.00;;;;;;5004124;28;907;-71
2023/05/17 08:26:11;;;;;;;;;;;18.70;66.80;;;;;;5019335;28;990;-70
2023/05/17 08:28:37;;;;;;;;;;;18.70;66.30;;;;;;5004424;28;840;-70
2023/05/17 08:31:03;;;;;;;;;;;18.70;66.30;;;;;;5003813;28;1339;-70
2023/05/17 08:33:28;;;;;;;;;;;18.70;66.30;;;;;;5003182;28;1454;-71
2023/05/17 08:35:54;;;;;;;;;;;18.80;66.40;;;;;;5022773;28;1806;-70
2023/05/17 08:38:22;;;;;;;;;;;18.80;66.40;;;;;;5021920;28;836;-70
2023/05/17 08:40:52;;;;;;;;;;;18.80;66.50;;;;;;5021053;28;1898;-70
2023/05/17 08:43:18;;;;;;;;;;;18.80;66.50;;;;;;5026089;28;855;-70
2023/05/17 08:45:44;;;;;;;;;;;18.80;66.50;;;;;;5022122;28;936;-70
2023/05/17 08:48:10;;;;;;;;;;;18.80;66.40;;;;;;5023408;28;989;-71
2023/05/17 08:50:37;;;;;;;;;;;18.80;66.40;;;;;;5008659;28;1331;-70
2023/05/17 08:53:02;;;;;;;;;;;18.80;66.40;;;;;;5006426;28;862;-71
2023/05/17 08:55:28;;;;;;;;;;;18.80;66.40;;;;;;5007529;28;816;-71
2023/05/17 08:57:53;;;;;;;;;;;18.80;66.40;;;;;;5020319;28;846;-71
2023/05/17 09:00:20;;;;;;;;;;;18.80;66.40;;;;;;5002151;28;1955;-71
2023/05/17 09:02:46;;;;;;;;;;;18.80;66.50;;;;;;5006832;28;1937;-71
2023/05/17 09:05:12;;;;;;;;;;;18.80;66.70;;;;;;5025111;28;1345;-71
2023/05/17 09:07:38;;;;;;;;;;;18.80;66.90;;;;;;5024232;28;1884;-70
2023/05/17 09:10:04;;;;;;;;;;;18.80;66.90;;;;;;5021017;28;1414;-68
2023/05/17 09:12:36;;;;;;;;;;;18.80;66.90;;;;;;5020787;28;1453;-69
2023/05/17 09:15:14;;;;;;;;;;;18.80;66.80;;;;;;5018337;28;836;-68
2023/05/17 09:17:40;;;;;;;;;;;18.90;67.00;;;;;;5021225;28;844;-68
2023/05/17 09:20:07;;;;;;;;;;;18.90;67.00;;;;;;5018560;28;2364;-69
2023/05/17 09:22:33;;;;;;;;;;;18.80;67.20;;;;;;5006610;28;1284;-70
2023/05/17 09:25:01;;;;;;;;;;;18.80;67.20;;;;;;5018510;28;1897;-70
2023/05/17 09:27:26;;;;;;;;;;;18.80;67.30;;;;;;5007460;28;1387;-70
2023/05/17 09:29:53;;;;;;;;;;;18.80;67.30;;;;;;5004048;28;1451;-71
2023/05/17 09:32:23;;;;;;;;;;;18.80;67.30;;;;;;5025467;28;911;-71
2023/05/17 09:34:49;;;;;;;;;;;18.80;67.30;;;;;;5021556;28;1080;-68
2023/05/17 09:37:15;;;;;;;;;;;18.90;67.50;;;;;;5007726;28;841;-70
2023/05/17 09:39:41;;;;;;;;;;;18.80;67.40;;;;;;4995886;28;1952;-70
2023/05/17 09:42:08;;;;;;;;;;;18.90;67.60;;;;;;4996826;28;1267;-71
2023/05/17 09:44:46;;;;;;;;;;;18.90;68.00;;;;;;5021200;28;859;-71
2023/05/17 09:47:20;;;;;;;;;;;18.90;67.90;;;;;;5020207;28;882;-69
2023/05/17 09:49:46;;;;;;;;;;;18.90;67.50;;;;;;5002161;28;2481;-69
2023/05/17 09:52:11;;;;;;;;;;;18.90;67.30;;;;;;5020133;28;1320;-69
2023/05/17 09:54:40;;;;;;;;;;;18.90;67.30;;;;;;5005587;28;1610;-69
2023/05/17 09:57:08;;;;;;;;;;;18.90;67.40;;;;;;5020598;28;1039;-69
2023/05/17 09:59:34;;;;;;;;;;;18.90;67.40;;;;;;5006550;28;1360;-69
2023/05/17 10:01:59;;;;;;;;;;;18.90;67.50;;;;;;5004713;28;2109;-69
2023/05/17 10:04:25;;;;;;;;;;;18.90;67.50;;;;;;5004167;28;1357;-69
2023/05/17 10:06:50;;;;;;;;;;;18.90;67.50;;;;;;5011973;28;1426;-69
2023/05/17 10:09:17;;;;;;;;;;;18.90;67.50;;;;;;5001949;28;1461;-69
2023/05/17 10:11:44;;;;;;;;;;;18.90;67.50;;;;;;5001714;28;1347;-69
2023/05/17 10:14:10;;;;;;;;;;;18.90;67.60;;;;;;5022342;28;873;-69
2023/05/17 10:16:36;;;;;;;;;;;18.90;67.60;;;;;;5005010;28;828;-69
2023/05/17 10:19:02;;;;;;;;;;;19.00;67.70;;;;;;5021665;28;1736;-69
2023/05/17 10:21:29;;;;;;;;;;;19.00;67.70;;;;;;5004643;28;1945;-69
2023/05/17 10:23:54;;;;;;;;;;;18.90;67.70;;;;;;5019223;28;1315;-69
2023/05/17 10:26:20;;;;;;;;;;;18.90;67.90;;;;;;5011704;28;909;-69
2023/05/17 10:28:46;;;;;;;;;;;19.00;68.50;;;;;;5002381;28;867;-70
2023/05/17 10:31:12;;;;;;;;;;;19.00;68.70;;;;;;4986647;28;1424;-70
2023/05/17 10:33:38;;;;;;;;;;;19.00;69.10;;;;;;5019327;28;1416;-69
2023/05/17 10:36:05;;;;;;;;;;;19.10;69.00;;;;;;5005122;28;1383;-69
2023/05/17 10:38:30;;;;;;;;;;;19.10;68.10;;;;;;5021715;28;851;-71
2023/05/17 10:40:56;;;;;;;;;;;19.00;68.00;;;;;;5004670;28;1902;-70
2023/05/17 10:43:21;;;;;;;;;;;19.00;67.90;;;;;;5019732;28;1019;-69
2023/05/17 10:45:47;;;;;;;;;;;19.00;67.80;;;;;;5000757;28;874;-70
2023/05/17 10:48:13;;;;;;;;;;;19.00;67.80;;;;;;5021481;28;860;-69
2023/05/17 10:50:39;;;;;;;;;;;19.00;67.90;;;;;;5002260;28;1329;-69
2023/05/17 10:53:07;;;;;;;;;;;19.10;68.00;;;;;;5020142;28;2112;-70
2023/05/17 10:55:42;;;;;;;;;;;19.00;67.90;;;;;;4999010;28;1363;-69
2023/05/17 10:58:08;;;;;;;;;;;19.10;68.00;;;;;;5018089;28;911;-69
2023/05/17 11:00:37;;;;;;;;;;;19.00;68.00;;;;;;5004507;28;1947;-69
2023/05/17 11:03:16;;;;;;;;;;;19.00;68.00;;;;;;5023792;28;879;-68
2023/05/17 11:05:45;;;;;;;;;;;19.00;68.00;;;;;;5002191;28;857;-69
2023/05/17 11:08:16;;;;;;;;;;;19.00;68.00;;;;;;5014851;28;825;-70
2023/05/17 11:11:00;;;;;;;;;;;19.00;68.50;;;;;;5019191;28;1271;-70
2023/05/17 11:13:26;;;;;;;;;;;19.10;69.10;;;;;;5021299;28;895;-70
2023/05/17 11:16:04;;;;;;;;;;;19.10;68.80;;;;;;5025329;28;867;-71
2023/05/17 11:18:49;;;;;;;;;;;19.10;68.10;;;;;;5001502;28;1186;-70
2023/05/17 11:21:15;;;;;;;;;;;19.10;67.90;;;;;;5006242;28;1983;-69
2023/05/17 11:23:41;;;;;;;;;;;19.10;68.00;;;;;;5016770;28;838;-70
2023/05/17 11:26:11;;;;;;;;;;;19.00;67.90;;;;;;5005628;28;1615;-69
2023/05/17 11:28:36;;;;;;;;;;;19.00;68.00;;;;;;5005875;28;824;-69
2023/05/17 11:31:02;;;;;;;;;;;19.00;67.90;;;;;;5003361;28;1326;-69
2023/05/17 11:33:37;;;;;;;;;;;19.00;68.00;;;;;;5018992;28;1218;-70
2023/05/17 11:36:03;;;;;;;;;;;19.00;68.00;;;;;;5015979;28;1381;-69
2023/05/17 11:38:29;;;;;;;;;;;19.00;68.70;;;;;;5006016;28;1190;-69
2023/05/17 11:40:55;;;;;;;;;;;19.00;68.90;;;;;;5016964;28;1964;-69
2023/05/17 11:43:24;;;;;;;;;;;19.10;68.80;;;;;;5004830;28;1613;-68
2023/05/17 11:45:50;;;;;;;;;;;19.10;68.70;;;;;;5005275;28;891;-69
2023/05/17 11:48:16;;;;;;;;;;;19.10;68.70;;;;;;5020622;28;1212;-69
2023/05/17 11:50:41;;;;;;;;;;;19.10;68.70;;;;;;4999116;28;1282;-69
2023/05/17 11:53:07;;;;;;;;;;;19.10;68.70;;;;;;5002929;28;843;-68
2023/05/17 11:55:39;;;;;;;;;;;19.10;68.50;;;;;;5016705;28;879;-69
2023/05/17 11:58:08;;;;;;;;;;;19.10;68.50;;;;;;5018907;28;853;-69
2023/05/17 12:00:33;;;;;;;;;;;19.10;68.50;;;;;;5003155;28;1895;-69
2023/05/17 12:03:13;;;;;;;;;;;19.10;68.50;;;;;;5018883;28;812;-67
2023/05/17 12:05:39;;;;;;;;;;;19.10;68.90;;;;;;5021132;28;1237;-67
2023/05/17 12:08:04;;;;;;;;;;;19.00;66.40;;;;;;5006177;28;1276;-68
2023/05/17 12:10:32;;;;;;;;;;;19.00;63.90;;;;;;5001860;28;1358;-68
2023/05/17 12:12:57;;;;;;;;;;;19.00;63.60;;;;;;5019315;28;914;-67
2023/05/17 12:15:22;;;;;;;;;;;19.00;63.80;;;;;;5019280;28;887;-68
2023/05/17 12:17:48;;;;;;;;;;;18.90;62.60;;;;;;5005036;28;1428;-67
2023/05/17 12:20:14;;;;;;;;;;;18.90;62.00;;;;;;5013473;28;1968;-68
2023/05/17 12:22:52;;;;;;;;;;;18.90;61.90;;;;;;5023283;28;1376;-67
2023/05/17 12:25:18;;;;;;;;;;;18.90;61.90;;;;;;5008462;28;1331;-67
2023/05/17 12:27:43;;;;;;;;;;;18.90;61.70;;;;;;5022412;28;891;-67
2023/05/17 12:30:15;;;;;;;;;;;18.80;60.90;;;;;;5024867;28;1272;-68
2023/05/17 12:32:41;;;;;;;;;;;18.80;60.30;;;;;;5010032;28;852;-68
2023/05/17 12:35:07;;;;;;;;;;;18.80;59.90;;;;;;5007941;28;1365;-69
2023/05/17 12:37:32;;;;;;;;;;;18.80;60.40;;;;;;5005992;28;1345;-67
2023/05/17 12:39:58;;;;;;;;;;;18.80;59.70;;;;;;5007403;28;1997;-68
2023/05/17 12:42:23;;;;;;;;;;;18.80;60.10;;;;;;5018543;28;817;-68
2023/05/17 12:44:49;;;;;;;;;;;18.80;59.70;;;;;;5018544;28;905;-67
2023/05/17 12:47:15;;;;;;;;;;;18.80;59.20;;;;;;5021492;28;979;-67
2023/05/17 12:49:50;;;;;;;;;;;18.80;58.50;;;;;;5021466;28;915;-68
2023/05/17 12:52:16;;;;;;;;;;;18.70;58.50;;;;;;5018694;28;1314;-68
2023/05/17 12:54:42;;;;;;;;;;;18.80;58.00;;;;;;5022430;28;966;-67
2023/05/17 12:57:12;;;;;;;;;;;18.70;58.30;;;;;;5023754;28;985;-67
2023/05/17 12:59:47;;;;;;;;;;;18.80;58.60;;;;;;5021673;28;811;-67
2023/05/17 13:02:13;;;;;;;;;;;18.70;58.80;;;;;;5024307;28;1286;-67
2023/05/17 13:04:39;;;;;;;;;;;18.70;58.80;;;;;;5006561;28;999;-67
2023/05/17 13:07:05;;;;;;;;;;;18.70;58.80;;;;;;5007062;28;1208;-67
2023/05/17 13:09:31;;;;;;;;;;;18.70;58.80;;;;;;5023136;28;1751;-67
2023/05/17 13:11:57;;;;;;;;;;;18.70;58.60;;;;;;5008729;28;1453;-67
2023/05/17 13:14:39;;;;;;;;;;;18.70;58.60;;;;;;5009682;28;937;-67
2023/05/17 13:17:08;;;;;;;;;;;18.70;58.40;;;;;;5007846;28;818;-67
2023/05/17 13:19:36;;;;;;;;;;;18.70;58.40;;;;;;5007573;28;919;-67
2023/05/17 13:22:02;;;;;;;;;;;18.70;57.50;;;;;;5022037;28;1903;-66
2023/05/17 13:24:29;;;;;;;;;;;18.70;56.40;;;;;;5006957;28;867;-66
2023/05/17 13:26:54;;;;;;;;;;;18.70;56.30;;;;;;5020834;28;911;-67
2023/05/17 13:29:20;;;;;;;;;;;18.70;56.50;;;;;;5019589;28;1734;-66
2023/05/17 13:31:46;;;;;;;;;;;18.70;56.10;;;;;;5005962;28;1444;-66
2023/05/17 13:34:12;;;;;;;;;;;18.70;56.00;;;;;;5018352;28;1436;-66
2023/05/17 13:36:37;;;;;;;;;;;18.70;56.10;;;;;;5019140;28;1277;-66
2023/05/17 13:39:03;;;;;;;;;;;18.70;56.40;;;;;;5018280;28;888;-67
2023/05/17 13:41:29;;;;;;;;;;;18.70;56.50;;;;;;4996849;28;1977;-67
2023/05/17 13:43:56;;;;;;;;;;;18.70;56.70;;;;;;5021629;28;777;-67
2023/05/17 13:46:21;;;;;;;;;;;18.70;56.80;;;;;;5005639;28;835;-67
2023/05/17 13:48:47;;;;;;;;;;;18.70;56.90;;;;;;5012305;28;1324;-67
2023/05/17 13:51:12;;;;;;;;;;;18.70;56.80;;;;;;5018333;28;1308;-67
2023/05/17 13:53:38;;;;;;;;;;;18.70;57.20;;;;;;5021810;28;1327;-67
2023/05/17 13:56:04;;;;;;;;;;;18.70;57.20;;;;;;5020096;28;867;-66
2023/05/17 13:58:29;;;;;;;;;;;18.70;56.90;;;;;;5004002;28;1208;-66
2023/05/17 14:00:55;;;;;;;;;;;18.70;57.10;;;;;;5020136;28;1977;-67
2023/05/17 14:03:20;;;;;;;;;;;18.70;57.30;;;;;;5017263;28;1032;-67
2023/05/17 14:05:49;;;;;;;;;;;18.70;57.30;;;;;;5026480;28;1376;-67
2023/05/17 14:08:18;;;;;;;;;;;18.70;56.70;;;;;;5021120;28;830;-68
2023/05/17 14:10:44;;;;;;;;;;;18.70;56.50;;;;;;5017490;28;1271;-68
2023/05/17 14:13:10;;;;;;;;;;;18.70;56.70;;;;;;5005252;28;846;-68
2023/05/17 14:15:37;;;;;;;;;;;18.60;56.50;;;;;;5018365;28;836;-67
2023/05/17 14:18:03;;;;;;;;;;;18.70;56.60;;;;;;5008450;28;880;-68
2023/05/17 14:20:29;;;;;;;;;;;18.60;56.00;;;;;;5019963;28;2347;-67
2023/05/17 14:22:54;;;;;;;;;;;18.70;55.70;;;;;;5019652;28;840;-68
2023/05/17 14:25:20;;;;;;;;;;;18.60;55.80;;;;;;5019889;28;835;-68
2023/05/17 14:27:45;;;;;;;;;;;18.70;55.30;;;;;;5021647;28;880;-68
2023/05/17 14:30:11;;;;;;;;;;;18.60;55.30;;;;;;5018122;28;1363;-68
2023/05/17 14:32:37;;;;;;;;;;;18.60;55.40;;;;;;5022378;28;828;-67